Time;durP1;ratioP1;P1;durP2;ratioP2;P2;SDS_P1;SDS_P2;PMS_P1;PMS_P2;Temp;Humidity;BMP_temperature;BMP_pressure;BME280_temperature;BME280_humidity;BME280_pressure;Samples;Min_cycle;Max_cycle;Signal;HPM_P1;HPM_P2
2024/04/22 00:00:56;;;;;;;10.20;6.65;;;3.70;99.90;;;;;;5482670;26;20321;-75
2024/04/22 00:03:22;;;;;;;5.90;5.03;;;3.80;99.90;;;;;;5476172;26;20248;-75
2024/04/22 00:05:57;;;;;;;8.38;7.15;;;3.70;99.90;;;;;;5475126;26;20240;-75
2024/04/22 00:08:23;;;;;;;6.35;5.75;;;3.80;99.90;;;;;;5457037;26;20320;-75
2024/04/22 00:11:02;;;;;;;8.73;6.10;;;3.70;99.90;;;;;;5476560;26;20248;-75
2024/04/22 00:13:28;;;;;;;5.93;5.32;;;3.70;99.90;;;;;;5475161;26;20241;-75
2024/04/22 00:16:00;;;;;;;7.00;6.30;;;3.70;99.90;;;;;;5481679;26;20253;-75
2024/04/22 00:18:26;;;;;;;8.73;5.97;;;3.90;99.90;;;;;;5477194;26;20282;-75
2024/04/22 00:20:55;;;;;;;6.35;5.75;;;3.80;99.90;;;;;;5451222;26;20294;-75
2024/04/22 00:23:21;;;;;;;4.97;4.47;;;3.60;99.90;;;;;;5459045;26;20281;-74
2024/04/22 00:25:50;;;;;;;6.10;4.68;;;3.70;99.90;;;;;;5474480;26;20625;-74
2024/04/22 00:28:16;;;;;;;7.97;6.70;;;3.60;99.90;;;;;;5464331;26;20505;-74
2024/04/22 00:30:45;;;;;;;7.50;6.20;;;3.60;99.90;;;;;;5479527;26;20714;-74
2024/04/22 00:33:14;;;;;;;8.30;5.10;;;3.50;99.90;;;;;;5471568;26;20251;-75
2024/04/22 00:35:43;;;;;;;6.65;5.95;;;3.50;99.90;;;;;;5476392;26;20241;-75
2024/04/22 00:38:09;;;;;;;6.75;5.55;;;3.60;99.90;;;;;;5475900;26;20608;-75
2024/04/22 00:40:38;;;;;;;6.00;4.90;;;3.60;99.90;;;;;;5476179;26;20718;-75
2024/04/22 00:43:04;;;;;;;7.63;6.22;;;3.50;99.90;;;;;;5481919;26;20302;-75
2024/04/22 00:45:35;;;;;;;5.78;5.18;;;3.60;99.90;;;;;;5477952;26;20264;-75
2024/04/22 00:48:02;;;;;;;6.85;6.13;;;3.60;99.90;;;;;;5475485;26;20260;-74
2024/04/22 00:50:34;;;;;;;5.88;5.32;;;3.60;99.90;;;;;;5479217;26;20252;-75
2024/04/22 00:53:02;;;;;;;7.28;6.57;;;3.60;99.90;;;;;;5469635;26;20874;-75
2024/04/22 00:55:31;;;;;;;6.53;5.90;;;3.60;99.90;;;;;;5446030;26;20240;-75
2024/04/22 00:58:00;;;;;;;7.25;5.97;;;3.60;99.90;;;;;;5465772;26;20347;-75
2024/04/22 01:00:29;;;;;;;6.15;5.28;;;3.50;99.90;;;;;;5451519;26;20239;-75
2024/04/22 01:02:56;;;;;;;5.10;4.72;;;3.40;99.90;;;;;;5478362;26;20309;-75
2024/04/22 01:05:25;;;;;;;6.97;6.15;;;3.50;99.90;;;;;;5474104;26;20265;-75
2024/04/22 01:07:55;;;;;;;6.43;4.95;;;3.50;99.90;;;;;;5479781;26;20268;-75
2024/04/22 01:10:26;;;;;;;6.20;5.65;;;3.60;99.90;;;;;;5478563;26;20236;-77
2024/04/22 01:12:54;;;;;;;6.28;5.43;;;3.60;99.90;;;;;;5431003;26;20603;-75
2024/04/22 01:15:23;;;;;;;6.38;5.78;;;3.50;99.90;;;;;;5451602;26;20241;-75
2024/04/22 01:17:51;;;;;;;6.28;5.70;;;3.60;99.90;;;;;;5478894;26;20242;-75
2024/04/22 01:20:20;;;;;;;9.27;5.85;;;3.50;99.90;;;;;;5475528;26;20754;-75
2024/04/22 01:22:49;;;;;;;5.45;4.95;;;3.60;99.90;;;;;;5481555;26;20264;-75
2024/04/22 01:25:20;;;;;;;8.40;6.05;;;3.50;99.90;;;;;;5470296;26;20291;-75
2024/04/22 01:27:46;;;;;;;8.02;5.90;;;3.50;99.90;;;;;;5467921;26;20516;-75
2024/04/22 01:30:16;;;;;;;7.97;5.35;;;3.60;99.90;;;;;;5462909;26;20332;-75
2024/04/22 01:32:43;;;;;;;8.10;5.40;;;3.60;99.90;;;;;;5474435;26;20318;-75
2024/04/22 01:35:12;;;;;;;6.15;5.55;;;3.70;99.90;;;;;;5481698;26;20243;-75
2024/04/22 01:37:39;;;;;;;6.10;5.30;;;3.60;99.90;;;;;;5442862;26;20343;-75
2024/04/22 01:40:12;;;;;;;5.28;4.78;;;3.60;99.90;;;;;;5482557;26;20279;-75
2024/04/22 01:42:38;;;;;;;5.40;4.80;;;3.60;99.90;;;;;;5482665;26;20862;-75
2024/04/22 01:45:08;;;;;;;6.43;5.78;;;3.60;99.90;;;;;;5452982;26;20400;-75
2024/04/22 01:47:34;;;;;;;7.47;5.47;;;3.70;99.90;;;;;;5475786;26;20240;-75
2024/04/22 01:50:03;;;;;;;5.32;4.82;;;3.70;99.90;;;;;;5483004;26;20271;-75
2024/04/22 01:52:30;;;;;;;6.68;5.50;;;3.60;99.90;;;;;;5476628;26;20249;-75
2024/04/22 01:55:00;;;;;;;5.80;5.20;;;3.60;99.90;;;;;;5415776;26;20243;-74
2024/04/22 01:57:29;;;;;;;5.97;4.30;;;3.60;99.90;;;;;;5426120;26;20246;-75
2024/04/22 01:59:58;;;;;;;6.40;5.68;;;3.60;99.90;;;;;;5450034;26;20240;-75
2024/04/22 02:02:25;;;;;;;4.88;4.38;;;3.50;99.90;;;;;;5441139;26;20277;-75
2024/04/22 02:04:55;;;;;;;6.45;5.25;;;3.50;99.90;;;;;;5445653;26;20793;-75
2024/04/22 02:07:23;;;;;;;5.18;4.68;;;3.50;99.90;;;;;;5449023;26;20315;-75
2024/04/22 02:09:53;;;;;;;6.40;5.47;;;3.40;99.90;;;;;;5466178;26;20248;-75
2024/04/22 02:12:19;;;;;;;7.88;5.45;;;3.40;99.90;;;;;;5460082;26;20659;-75
2024/04/22 02:14:51;;;;;;;5.15;4.55;;;3.40;99.90;;;;;;5457898;26;20271;-75
2024/04/22 02:17:18;;;;;;;6.20;5.70;;;3.50;99.90;;;;;;5475410;26;20357;-75
2024/04/22 02:19:47;;;;;;;6.00;4.88;;;3.40;99.90;;;;;;5475253;26;20325;-75
2024/04/22 02:22:14;;;;;;;5.10;4.70;;;3.30;99.90;;;;;;5440473;26;20244;-75
2024/04/22 02:24:43;;;;;;;6.00;5.43;;;3.40;99.90;;;;;;5464132;26;20262;-75
2024/04/22 02:27:10;;;;;;;5.25;4.75;;;3.40;99.90;;;;;;5462059;26;20307;-75
2024/04/22 02:29:39;;;;;;;7.20;5.47;;;3.40;99.90;;;;;;5447831;26;20238;-75
2024/04/22 02:32:08;;;;;;;5.10;4.60;;;3.40;99.90;;;;;;5446420;26;20245;-75
2024/04/22 02:34:37;;;;;;;6.05;4.55;;;3.50;99.90;;;;;;5458942;26;20642;-75
2024/04/22 02:37:04;;;;;;;5.85;5.30;;;3.40;99.90;;;;;;5453685;26;20742;-75
2024/04/22 02:39:33;;;;;;;5.97;5.38;;;3.40;99.90;;;;;;5474158;26;20239;-75
2024/04/22 02:41:59;;;;;;;5.47;4.88;;;3.30;99.90;;;;;;5472902;26;20271;-75
2024/04/22 02:44:28;;;;;;;5.55;5.00;;;3.30;99.90;;;;;;5471495;26;20695;-75
2024/04/22 02:46:54;;;;;;;5.60;4.72;;;3.20;99.90;;;;;;5469331;26;20244;-75
2024/04/22 02:49:25;;;;;;;5.00;4.45;;;3.30;99.90;;;;;;5475266;26;20601;-75
2024/04/22 02:51:51;;;;;;;5.95;5.35;;;3.30;99.90;;;;;;5473546;26;20270;-75
2024/04/22 02:54:25;;;;;;;6.47;5.57;;;3.30;99.90;;;;;;5464243;26;20350;-75
2024/04/22 02:56:51;;;;;;;6.25;4.45;;;3.40;99.90;;;;;;5471596;26;20250;-75
2024/04/22 02:59:20;;;;;;;7.68;5.15;;;3.30;99.90;;;;;;5456729;26;20358;-75
2024/04/22 03:01:49;;;;;;;5.85;5.03;;;3.20;99.90;;;;;;5480128;26;20271;-75
2024/04/22 03:04:18;;;;;;;5.30;4.15;;;3.30;99.90;;;;;;5474074;26;20241;-75
2024/04/22 03:06:47;;;;;;;6.15;5.35;;;3.30;99.90;;;;;;5459229;26;20253;-75
2024/04/22 03:09:16;;;;;;;5.32;4.55;;;3.30;99.90;;;;;;5458599;26;20297;-75
2024/04/22 03:11:42;;;;;;;5.53;5.03;;;3.30;99.90;;;;;;5467896;26;20240;-75
2024/04/22 03:14:11;;;;;;;6.43;5.15;;;3.30;99.90;;;;;;5435751;26;20341;-75
2024/04/22 03:16:37;;;;;;;6.50;5.40;;;3.20;99.90;;;;;;5473451;26;20243;-75
2024/04/22 03:19:06;;;;;;;4.80;4.38;;;3.10;99.90;;;;;;5477242;26;20279;-75
2024/04/22 03:21:32;;;;;;;5.57;4.65;;;3.20;99.90;;;;;;5464909;26;20701;-75
2024/04/22 03:24:03;;;;;;;6.55;4.35;;;3.20;99.90;;;;;;5460687;26;20317;-75
2024/04/22 03:26:29;;;;;;;4.80;4.20;;;3.10;99.90;;;;;;5471706;26;20831;-75
2024/04/22 03:28:58;;;;;;;5.78;3.95;;;3.10;99.90;;;;;;5470134;26;20297;-75
2024/04/22 03:31:25;;;;;;;7.63;5.22;;;3.10;99.90;;;;;;5467442;26;20275;-75
2024/04/22 03:33:53;;;;;;;5.32;4.38;;;3.10;99.90;;;;;;5478203;26;20275;-75
2024/04/22 03:36:20;;;;;;;5.53;4.97;;;3.10;99.90;;;;;;5473614;26;20251;-75
2024/04/22 03:38:49;;;;;;;5.05;4.55;;;3.10;99.90;;;;;;5477647;26;20249;-75
2024/04/22 03:41:21;;;;;;;4.97;4.38;;;3.10;99.90;;;;;;5484753;26;20275;-75
2024/04/22 03:43:50;;;;;;;6.45;4.40;;;3.10;99.90;;;;;;5450416;26;20256;-75
2024/04/22 03:51:48;;;;;;;5.55;4.53;;;3.00;99.90;;;;;;5461651;26;20298;-75
2024/04/22 03:54:19;;;;;;;4.78;4.30;;;2.90;99.90;;;;;;5468742;26;20249;-75
2024/04/22 03:56:50;;;;;;;4.05;3.65;;;2.90;99.90;;;;;;5478563;26;20240;-75
2024/04/22 03:59:16;;;;;;;4.63;4.25;;;2.90;99.90;;;;;;5465865;26;20281;-75
2024/04/22 04:01:45;;;;;;;4.85;4.40;;;3.00;99.90;;;;;;5461804;26;20261;-75
2024/04/22 04:04:11;;;;;;;4.60;4.15;;;2.90;99.90;;;;;;5484304;26;20266;-75
2024/04/22 04:06:40;;;;;;;4.57;4.03;;;2.80;99.90;;;;;;5471048;26;20288;-75
2024/04/22 04:09:06;;;;;;;4.22;3.83;;;2.80;99.90;;;;;;5446268;26;20744;-76
2024/04/22 04:11:37;;;;;;;4.53;4.00;;;2.80;99.90;;;;;;5482950;26;20240;-75
2024/04/22 04:14:07;;;;;;;4.28;3.88;;;2.80;99.90;;;;;;5479142;26;20286;-75
2024/04/22 04:16:35;;;;;;;7.28;4.45;;;2.80;99.90;;;;;;5444148;26;20256;-75
2024/04/22 04:19:02;;;;;;;4.60;4.20;;;2.90;99.90;;;;;;5481528;26;20278;-74
2024/04/22 04:21:31;;;;;;;4.30;3.88;;;2.90;99.90;;;;;;5472957;26;20563;-75
2024/04/22 04:23:57;;;;;;;5.53;5.03;;;2.70;99.90;;;;;;5481768;26;20286;-77
2024/04/22 04:26:26;;;;;;;5.30;3.95;;;2.70;99.90;;;;;;5482360;26;20239;-75
2024/04/22 04:28:52;;;;;;;4.40;4.10;;;2.60;99.90;;;;;;5481875;26;20238;-75
2024/04/22 04:31:24;;;;;;;4.90;4.40;;;2.60;99.90;;;;;;5469787;26;20307;-75
2024/04/22 04:33:50;;;;;;;5.18;4.65;;;2.60;99.90;;;;;;5462422;26;20344;-72
2024/04/22 04:36:19;;;;;;;5.55;5.05;;;2.60;99.90;;;;;;5449120;26;20245;-71
2024/04/22 04:38:45;;;;;;;6.32;4.47;;;2.50;99.90;;;;;;5460154;26;20243;-71
2024/04/22 04:41:14;;;;;;;6.60;4.10;;;2.50;99.90;;;;;;5462236;26;20248;-71
2024/04/22 04:43:40;;;;;;;5.90;4.32;;;2.50;99.90;;;;;;5451301;26;20362;-71
2024/04/22 04:46:09;;;;;;;5.10;4.60;;;2.50;99.90;;;;;;5463571;26;20298;-72
2024/04/22 04:48:38;;;;;;;6.80;4.55;;;2.50;99.90;;;;;;5452937;26;20260;-72
2024/04/22 04:51:07;;;;;;;6.03;4.78;;;2.40;99.90;;;;;;5461289;26;20279;-72
2024/04/22 04:53:33;;;;;;;6.85;4.93;;;2.50;99.90;;;;;;5464280;26;20243;-72
2024/04/22 04:56:03;;;;;;;5.72;4.45;;;2.50;99.90;;;;;;5474932;26;20248;-72
2024/04/22 04:58:29;;;;;;;6.32;4.72;;;2.30;99.90;;;;;;5474221;26;20241;-72
2024/04/22 05:00:58;;;;;;;6.53;4.53;;;2.30;99.90;;;;;;5473944;26;20331;-72
2024/04/22 05:03:24;;;;;;;6.85;4.85;;;2.30;99.90;;;;;;5473373;26;20348;-72
2024/04/22 05:06:02;;;;;;;6.93;4.35;;;2.30;99.90;;;;;;5461261;26;20247;-72
2024/04/22 05:08:28;;;;;;;5.03;4.05;;;2.20;99.90;;;;;;5459245;26;20239;-73
2024/04/22 05:10:57;;;;;;;5.53;4.53;;;2.30;99.90;;;;;;5461349;26;20277;-71
2024/04/22 05:13:24;;;;;;;6.10;4.55;;;2.30;99.90;;;;;;5457462;26;20243;-72
2024/04/22 05:15:52;;;;;;;5.10;4.47;;;2.30;99.90;;;;;;5458608;26;20296;-72
2024/04/22 05:18:19;;;;;;;5.45;4.60;;;2.30;99.90;;;;;;5464874;26;20287;-72
2024/04/22 05:20:48;;;;;;;10.77;7.35;;;2.30;99.90;;;;;;5457661;26;20236;-72
2024/04/22 05:23:17;;;;;;;7.80;5.38;;;2.20;99.90;;;;;;5444249;26;20255;-72
2024/04/22 05:25:46;;;;;;;5.15;4.65;;;2.20;99.90;;;;;;5469487;26;20277;-75
2024/04/22 05:28:12;;;;;;;6.63;6.00;;;2.10;99.90;;;;;;5464000;26;20275;-74
2024/04/22 05:30:41;;;;;;;4.97;4.47;;;2.20;99.90;;;;;;5453563;26;20543;-74
2024/04/22 05:38:37;;;;;;;4.65;4.18;;;2.20;99.90;;;;;;5430092;26;20257;-75
2024/04/22 05:41:06;;;;;;;10.23;4.90;;;2.20;99.90;;;;;;5457311;26;20744;-75
2024/04/22 05:43:35;;;;;;;5.05;4.55;;;2.30;99.90;;;;;;5460440;26;20243;-74
2024/04/22 05:46:05;;;;;;;4.32;4.03;;;2.30;99.90;;;;;;5464968;26;20344;-75
2024/04/22 05:48:34;;;;;;;7.00;4.28;;;2.50;99.90;;;;;;5468617;26;20285;-73
2024/04/22 05:51:04;;;;;;;4.53;4.13;;;2.60;99.90;;;;;;5481532;26;20719;-72
2024/04/22 05:53:30;;;;;;;5.80;4.43;;;2.60;99.90;;;;;;5462102;26;20273;-73
2024/04/22 05:56:01;;;;;;;5.40;4.20;;;2.60;99.90;;;;;;5460280;26;20240;-73
2024/04/22 05:58:27;;;;;;;6.65;4.30;;;2.70;99.90;;;;;;5440466;26;20268;-72
2024/04/22 06:00:57;;;;;;;6.10;4.05;;;2.60;99.90;;;;;;5456272;26;20258;-72
2024/04/22 06:03:23;;;;;;;5.13;4.60;;;2.70;99.90;;;;;;5469008;26;20759;-72
2024/04/22 06:05:52;;;;;;;7.57;4.88;;;2.70;99.90;;;;;;5477523;26;20319;-72
2024/04/22 06:08:19;;;;;;;8.63;4.65;;;2.80;98.90;;;;;;5460355;26;20293;-72
2024/04/22 06:10:48;;;;;;;5.30;3.30;;;2.80;99.00;;;;;;5445823;26;20911;-72
2024/04/22 06:13:18;;;;;;;4.88;4.38;;;2.80;99.00;;;;;;5450095;26;20243;-72
2024/04/22 06:15:48;;;;;;;4.60;3.95;;;2.90;98.40;;;;;;5454399;26;20275;-72
2024/04/22 06:18:16;;;;;;;5.20;4.70;;;3.10;97.80;;;;;;5466886;26;20315;-72
2024/04/22 06:20:48;;;;;;;3.78;3.47;;;3.20;97.10;;;;;;5454656;26;20255;-72
2024/04/22 06:23:15;;;;;;;6.47;4.88;;;3.10;97.40;;;;;;5476283;26;20243;-72
2024/04/22 06:25:46;;;;;;;4.68;4.28;;;3.10;97.40;;;;;;5476690;26;20580;-72
2024/04/22 06:28:18;;;;;;;4.65;4.15;;;3.20;97.00;;;;;;5473783;26;20239;-72
2024/04/22 06:30:48;;;;;;;6.47;4.88;;;3.30;96.80;;;;;;5478722;26;20248;-72
2024/04/22 06:33:16;;;;;;;4.30;3.80;;;3.20;96.70;;;;;;5471672;26;20341;-72
2024/04/22 06:35:47;;;;;;;4.75;4.20;;;3.10;96.60;;;;;;5480312;26;20286;-72
2024/04/22 06:38:15;;;;;;;5.40;4.38;;;3.10;97.00;;;;;;5460839;26;20243;-72
2024/04/22 06:40:48;;;;;;;4.00;3.70;;;3.10;97.30;;;;;;5470952;26;20249;-73
2024/04/22 06:43:18;;;;;;;4.15;3.75;;;3.20;96.40;;;;;;5472569;26;20244;-72
2024/04/22 06:45:49;;;;;;;4.07;3.72;;;3.30;96.50;;;;;;5457742;26;20245;-72
2024/04/22 06:48:18;;;;;;;4.65;4.22;;;3.30;97.00;;;;;;5483740;26;20521;-72
2024/04/22 06:50:51;;;;;;;7.05;4.88;;;3.40;97.10;;;;;;5480374;26;20260;-72
2024/04/22 06:53:21;;;;;;;4.75;4.35;;;3.40;96.60;;;;;;5471098;26;20710;-72
2024/04/22 06:55:53;;;;;;;5.65;4.10;;;3.30;96.40;;;;;;5459616;26;20680;-72
2024/04/22 06:58:23;;;;;;;5.22;4.18;;;3.30;96.60;;;;;;5461216;26;20249;-72
2024/04/22 07:00:52;;;;;;;5.00;3.95;;;3.30;96.70;;;;;;5462806;26;20249;-72
2024/04/22 07:03:18;;;;;;;4.25;3.83;;;3.40;96.50;;;;;;5451359;26;20245;-72
2024/04/22 07:05:47;;;;;;;4.15;3.85;;;3.40;96.70;;;;;;5462881;26;20709;-72
2024/04/22 07:08:14;;;;;;;4.80;4.20;;;3.40;96.70;;;;;;5456362;26;20277;-72
2024/04/22 07:10:43;;;;;;;4.80;4.00;;;3.50;96.80;;;;;;5475086;26;20280;-72
2024/04/22 07:13:09;;;;;;;6.68;4.85;;;3.60;96.70;;;;;;5468086;26;20244;-72
2024/04/22 07:15:40;;;;;;;7.20;4.57;;;3.80;96.00;;;;;;5470021;26;20291;-72
2024/04/22 07:18:06;;;;;;;4.82;3.75;;;3.90;96.00;;;;;;5462868;26;20300;-72
2024/04/22 07:20:35;;;;;;;7.47;3.95;;;4.00;95.50;;;;;;5476698;26;20712;-72
2024/04/22 07:23:03;;;;;;;5.30;4.00;;;3.80;95.70;;;;;;5467562;26;20250;-72
2024/04/22 07:25:32;;;;;;;5.80;3.50;;;3.60;95.80;;;;;;5452819;26;20241;-72
2024/04/22 07:27:59;;;;;;;7.07;4.32;;;3.80;95.60;;;;;;5471516;26;20247;-72
2024/04/22 07:30:28;;;;;;;4.20;3.80;;;3.90;95.30;;;;;;5481669;26;20980;-72
2024/04/22 07:32:58;;;;;;;4.30;3.90;;;3.90;95.70;;;;;;5449439;26;20562;-72
2024/04/22 07:35:27;;;;;;;3.75;3.45;;;4.00;95.50;;;;;;5459835;26;20239;-72
2024/04/22 07:37:57;;;;;;;3.65;3.35;;;4.10;95.60;;;;;;5468685;26;20246;-72
2024/04/22 07:40:27;;;;;;;4.45;4.05;;;4.20;95.60;;;;;;5454327;26;20310;-73
2024/04/22 07:42:53;;;;;;;4.68;4.25;;;4.30;94.30;;;;;;5475637;26;20249;-72
2024/04/22 07:45:23;;;;;;;4.07;3.67;;;4.50;93.90;;;;;;5467383;26;20754;-72
2024/04/22 07:47:51;;;;;;;4.07;3.67;;;4.30;94.40;;;;;;5480242;26;20358;-72
2024/04/22 07:50:23;;;;;;;6.95;4.43;;;4.30;94.70;;;;;;5467248;26;20285;-72
2024/04/22 07:52:51;;;;;;;5.72;4.20;;;4.30;94.30;;;;;;5450358;26;20687;-73
2024/04/22 07:55:20;;;;;;;4.40;3.80;;;4.40;94.10;;;;;;5472139;26;20257;-72
2024/04/22 07:57:49;;;;;;;4.20;3.70;;;4.50;93.90;;;;;;5458946;26;20445;-72
2024/04/22 08:00:19;;;;;;;3.15;2.95;;;4.70;93.20;;;;;;5471352;26;20246;-72
2024/04/22 08:02:47;;;;;;;4.82;4.00;;;4.70;93.60;;;;;;5483655;26;20264;-72
2024/04/22 08:05:16;;;;;;;4.28;3.88;;;4.60;93.10;;;;;;5461651;26;20252;-72
2024/04/22 08:07:48;;;;;;;4.82;3.75;;;4.70;93.60;;;;;;5464746;26;20259;-72
2024/04/22 08:10:17;;;;;;;6.38;3.25;;;4.70;94.00;;;;;;5464909;26;20242;-72
2024/04/22 08:12:43;;;;;;;3.50;3.20;;;4.70;93.30;;;;;;5451922;26;20291;-72
2024/04/22 08:15:12;;;;;;;3.60;3.30;;;4.90;92.80;;;;;;5447101;26;20696;-72
2024/04/22 08:17:39;;;;;;;4.78;3.38;;;5.10;92.20;;;;;;5468107;26;20250;-72
2024/04/22 08:20:08;;;;;;;3.90;3.03;;;5.10;92.70;;;;;;5451030;26;20291;-72
2024/04/22 08:22:34;;;;;;;4.82;3.92;;;5.10;92.00;;;;;;5465901;26;20244;-72
2024/04/22 08:25:06;;;;;;;7.47;3.33;;;5.10;91.60;;;;;;5478836;26;20282;-72
2024/04/22 08:27:33;;;;;;;4.10;3.42;;;5.10;91.60;;;;;;5471713;26;20245;-72
2024/04/22 08:30:01;;;;;;;4.68;3.92;;;5.20;92.00;;;;;;5470898;26;20286;-72
2024/04/22 08:32:28;;;;;;;4.20;2.70;;;5.40;92.30;;;;;;5467604;26;20246;-73
2024/04/22 08:34:57;;;;;;;3.75;3.10;;;5.50;90.10;;;;;;5456961;26;20269;-72
2024/04/22 08:37:24;;;;;;;4.03;2.90;;;5.70;90.20;;;;;;5462683;26;20270;-72
2024/04/22 08:39:53;;;;;;;3.15;2.70;;;6.00;87.60;;;;;;5469253;26;20577;-72
2024/04/22 08:42:23;;;;;;;2.88;2.55;;;6.00;81.60;;;;;;5457631;26;20272;-72
2024/04/22 08:44:53;;;;;;;2.58;2.35;;;6.00;79.70;;;;;;5444564;26;20638;-72
2024/04/22 08:47:20;;;;;;;2.97;2.70;;;5.90;79.40;;;;;;5459709;26;20239;-72
2024/04/22 08:49:49;;;;;;;4.25;2.70;;;5.90;80.50;;;;;;5446590;26;20259;-72
2024/04/22 08:52:16;;;;;;;2.92;2.70;;;6.00;78.60;;;;;;5479596;26;20237;-72
2024/04/22 08:54:45;;;;;;;3.70;2.65;;;6.00;79.60;;;;;;5473307;26;20588;-72
2024/04/22 08:57:11;;;;;;;2.90;2.60;;;6.00;79.90;;;;;;5464278;26;20351;-72
2024/04/22 08:59:43;;;;;;;3.10;2.47;;;6.10;79.20;;;;;;5464768;26;20265;-72
2024/04/22 09:02:11;;;;;;;2.80;2.60;;;6.10;79.20;;;;;;5483808;26;20270;-71
2024/04/22 09:04:40;;;;;;;2.97;2.67;;;6.20;78.80;;;;;;5467372;26;20247;-71
2024/04/22 09:07:09;;;;;;;2.58;2.38;;;6.10;77.70;;;;;;5473305;26;20237;-71
2024/04/22 09:09:38;;;;;;;3.53;2.80;;;6.00;80.20;;;;;;5476179;26;20283;-72
2024/04/22 09:12:05;;;;;;;3.90;2.90;;;6.20;79.50;;;;;;5448882;26;20244;-72
2024/04/22 09:14:34;;;;;;;4.10;3.00;;;6.30;80.30;;;;;;5457964;26;20279;-72
2024/04/22 09:17:04;;;;;;;3.65;2.65;;;6.30;79.60;;;;;;5447852;26;20267;-72
2024/04/22 09:19:34;;;;;;;2.67;2.47;;;6.50;79.50;;;;;;5460473;26;20235;-72
2024/04/22 09:22:02;;;;;;;3.13;2.83;;;6.60;78.70;;;;;;5468265;26;20693;-72
2024/04/22 09:24:32;;;;;;;3.25;2.80;;;6.80;79.40;;;;;;5474332;26;20275;-72
2024/04/22 09:26:59;;;;;;;3.75;2.95;;;6.80;77.90;;;;;;5471476;26;20251;-72
2024/04/22 09:29:28;;;;;;;5.18;2.90;;;7.00;79.80;;;;;;5474932;26;20239;-72
2024/04/22 09:31:58;;;;;;;2.55;2.35;;;7.00;78.70;;;;;;5469206;26;20275;-72
2024/04/22 09:34:33;;;;;;;5.57;3.35;;;7.20;78.90;;;;;;5446609;26;20279;-72
2024/04/22 09:37:00;;;;;;;2.53;2.33;;;7.10;78.10;;;;;;5467851;26;20781;-72
2024/04/22 09:39:30;;;;;;;2.95;2.75;;;7.10;77.90;;;;;;5472857;26;20246;-72
2024/04/22 09:41:56;;;;;;;3.10;2.72;;;7.00;76.70;;;;;;5474275;26;20265;-72
2024/04/22 09:44:26;;;;;;;3.70;3.15;;;7.00;78.40;;;;;;5467241;26;20239;-71
2024/04/22 09:46:54;;;;;;;3.55;3.00;;;6.90;77.60;;;;;;5445352;26;20359;-72
2024/04/22 09:49:24;;;;;;;2.95;2.67;;;7.00;76.90;;;;;;5479977;26;20666;-72
2024/04/22 09:51:53;;;;;;;3.17;2.87;;;7.10;76.30;;;;;;5470865;26;20282;-72
2024/04/22 09:54:21;;;;;;;3.00;2.75;;;7.00;76.30;;;;;;5475919;26;20564;-72
2024/04/22 09:56:49;;;;;;;2.88;2.67;;;6.90;77.00;;;;;;5474867;26;20727;-72
2024/04/22 09:59:20;;;;;;;3.55;2.92;;;6.60;77.30;;;;;;5446839;26;20751;-72
2024/04/22 10:01:46;;;;;;;4.18;2.47;;;6.30;79.30;;;;;;5447130;26;20248;-72
2024/04/22 10:04:16;;;;;;;5.35;3.05;;;6.30;80.70;;;;;;5446384;26;20611;-72
2024/04/22 10:06:42;;;;;;;3.47;2.92;;;6.20;81.00;;;;;;5462024;26;20243;-72
2024/04/22 10:09:18;;;;;;;3.10;2.80;;;6.20;79.90;;;;;;5454383;26;20240;-72
2024/04/22 10:11:44;;;;;;;5.63;3.10;;;6.20;81.40;;;;;;5457331;26;20244;-72
2024/04/22 10:14:19;;;;;;;2.60;2.40;;;5.90;78.80;;;;;;5446160;26;20274;-72
2024/04/22 10:16:53;;;;;;;2.50;2.30;;;5.80;78.50;;;;;;5456631;26;20269;-72
2024/04/22 10:19:22;;;;;;;3.60;2.95;;;5.80;80.90;;;;;;5469866;26;20747;-72
2024/04/22 10:21:49;;;;;;;3.10;2.55;;;6.00;81.40;;;;;;5472108;26;20665;-72
2024/04/22 10:24:29;;;;;;;2.83;2.50;;;6.30;81.20;;;;;;5478746;26;20294;-72
2024/04/22 10:26:57;;;;;;;3.22;3.00;;;6.50;80.30;;;;;;5478483;26;20255;-72
2024/04/22 10:29:26;;;;;;;3.70;3.28;;;6.80;78.80;;;;;;5479162;26;20281;-72
2024/04/22 10:31:52;;;;;;;4.03;3.05;;;7.00;77.40;;;;;;5479944;26;20733;-72
2024/04/22 10:34:21;;;;;;;2.97;2.75;;;7.00;76.90;;;;;;5464758;26;20266;-72
2024/04/22 10:36:47;;;;;;;3.47;3.17;;;7.10;76.20;;;;;;5446069;26;20236;-72
2024/04/22 10:39:16;;;;;;;2.97;2.65;;;6.90;77.60;;;;;;5445855;26;20272;-72
2024/04/22 10:41:45;;;;;;;3.50;3.20;;;7.00;76.60;;;;;;5457012;26;20287;-72
2024/04/22 10:44:14;;;;;;;3.75;2.80;;;7.30;74.90;;;;;;5442021;26;21183;-77
2024/04/22 10:46:40;;;;;;;2.78;2.58;;;7.30;73.60;;;;;;5464970;26;20238;-71
2024/04/22 10:49:09;;;;;;;2.70;2.50;;;7.30;75.30;;;;;;5470943;26;20597;-73
2024/04/22 10:51:35;;;;;;;3.63;2.67;;;7.70;74.40;;;;;;5451525;26;20613;-72
2024/04/22 10:54:04;;;;;;;3.27;2.90;;;8.00;75.70;;;;;;5479088;26;20557;-73
2024/04/22 10:56:31;;;;;;;3.13;2.83;;;8.40;73.80;;;;;;5468113;26;20546;-72
2024/04/22 10:59:03;;;;;;;2.90;2.70;;;8.70;75.10;;;;;;5469615;26;20595;-68
2024/04/22 11:01:29;;;;;;;2.37;2.17;;;8.70;69.10;;;;;;5486212;26;20592;-70
2024/04/22 11:03:58;;;;;;;2.50;2.30;;;8.50;65.40;;;;;;5470197;26;20915;-70
2024/04/22 11:06:25;;;;;;;2.67;2.23;;;8.70;65.60;;;;;;5474226;26;20630;-71
2024/04/22 11:08:54;;;;;;;2.57;2.20;;;9.10;68.80;;;;;;5448836;26;20593;-71
2024/04/22 11:11:20;;;;;;;2.57;2.37;;;9.50;66.90;;;;;;5453812;26;20640;-73
2024/04/22 11:13:50;;;;;;;3.00;2.70;;;9.90;69.50;;;;;;5479761;26;20556;-72
2024/04/22 11:16:20;;;;;;;3.83;2.23;;;10.10;64.30;;;;;;5442586;26;20749;-72
2024/04/22 11:18:50;;;;;;;2.00;1.80;;;9.80;64.80;;;;;;5467905;26;21048;-71
2024/04/22 11:21:16;;;;;;;4.40;2.33;;;9.70;65.40;;;;;;5469965;26;20608;-73
2024/04/22 11:23:45;;;;;;;3.23;2.50;;;9.70;64.50;;;;;;5470728;26;21273;-71
2024/04/22 11:26:11;;;;;;;2.67;2.23;;;9.40;62.10;;;;;;5434530;26;20593;-71
2024/04/22 11:28:40;;;;;;;3.67;2.43;;;9.20;61.90;;;;;;5463990;26;20603;-72
2024/04/22 11:31:07;;;;;;;7.37;2.70;;;9.10;66.00;;;;;;5467522;26;21020;-71
2024/04/22 11:33:38;;;;;;;3.80;2.83;;;9.60;68.50;;;;;;5465510;26;20637;-70
2024/04/22 11:36:09;;;;;;;2.80;2.53;;;9.80;67.00;;;;;;5442384;26;20631;-71
2024/04/22 11:38:37;;;;;;;2.70;2.33;;;9.60;63.60;;;;;;5465234;26;20643;-72
2024/04/22 11:41:04;;;;;;;3.80;2.60;;;9.60;62.90;;;;;;5450738;26;20567;-72
2024/04/22 11:43:33;;;;;;;7.50;2.47;;;9.40;61.40;;;;;;5451363;26;20596;-71
2024/04/22 11:46:00;;;;;;;2.47;1.97;;;9.40;63.30;;;;;;5434015;26;20549;-72
2024/04/22 11:48:29;;;;;;;2.37;2.17;;;9.20;60.90;;;;;;5456462;26;20559;-72
2024/04/22 11:50:58;;;;;;;2.77;2.57;;;10.30;61.30;;;;;;5470315;26;20608;-72
2024/04/22 11:53:26;;;;;;;3.43;2.00;;;11.20;58.40;;;;;;5471089;26;20980;-72
2024/04/22 11:55:54;;;;;;;3.40;1.80;;;11.10;55.90;;;;;;5466796;26;20537;-72
2024/04/22 11:58:25;;;;;;;2.20;1.80;;;10.10;55.20;;;;;;5453587;26;20660;-72
2024/04/22 12:00:51;;;;;;;3.20;1.97;;;10.60;57.40;;;;;;5458333;26;20639;-72
2024/04/22 12:03:20;;;;;;;2.50;2.30;;;12.60;56.50;;;;;;5461767;26;20612;-72
2024/04/22 12:05:46;;;;;;;2.47;2.27;;;14.10;56.70;;;;;;5460138;26;20614;-72
2024/04/22 12:08:17;;;;;;;2.87;2.63;;;14.70;52.70;;;;;;5455722;26;21015;-72
2024/04/22 12:10:43;;;;;;;2.10;2.00;;;13.40;51.50;;;;;;5470794;26;20568;-72
2024/04/22 12:13:12;;;;;;;2.50;2.30;;;12.90;54.50;;;;;;5449907;26;21233;-72
2024/04/22 12:15:39;;;;;;;3.10;2.30;;;12.30;54.20;;;;;;5478317;26;21160;-72
2024/04/22 12:18:08;;;;;;;3.23;2.30;;;10.80;53.70;;;;;;5459568;26;20632;-72
2024/04/22 12:20:34;;;;;;;2.37;2.17;;;9.70;56.10;;;;;;5467199;26;20554;-72
2024/04/22 12:23:04;;;;;;;3.27;2.60;;;10.00;57.60;;;;;;5481648;26;20559;-72
2024/04/22 12:25:33;;;;;;;2.30;2.10;;;10.20;58.10;;;;;;5474816;26;20554;-72
2024/04/22 12:28:01;;;;;;;4.23;1.63;;;10.00;57.20;;;;;;5457768;26;20606;-72
2024/04/22 12:30:28;;;;;;;2.33;1.80;;;9.80;57.60;;;;;;5461270;26;20559;-72
2024/04/22 12:32:57;;;;;;;2.80;2.20;;;9.60;58.70;;;;;;5473611;26;20558;-72
2024/04/22 12:35:23;;;;;;;1.90;1.70;;;9.70;57.60;;;;;;5455297;26;20570;-72
2024/04/22 12:37:52;;;;;;;1.80;1.70;;;11.10;57.80;;;;;;5478816;26;20609;-72
2024/04/22 12:40:18;;;;;;;2.90;2.07;;;11.00;56.20;;;;;;5476446;26;20590;-72
2024/04/22 12:42:49;;;;;;;2.43;2.23;;;10.30;54.80;;;;;;5472249;26;20623;-72
2024/04/22 12:45:15;;;;;;;1.93;1.83;;;9.50;55.80;;;;;;5476210;26;20601;-72
2024/04/22 12:50:48;;;;;;;2.30;2.10;;;10.30;57.50;;;;;;5476704;26;21026;-72
2024/04/22 12:53:17;;;;;;;1.73;1.63;;;12.50;56.50;;;;;;5434411;26;20564;-72
2024/04/22 12:55:46;;;;;;;2.43;1.93;;;13.00;55.40;;;;;;5449966;26;20600;-72
2024/04/22 12:58:18;;;;;;;1.63;1.53;;;13.30;57.10;;;;;;5471460;26;21167;-72
2024/04/22 13:00:48;;;;;;;2.10;2.00;;;14.60;52.80;;;;;;5474610;26;20544;-72
2024/04/22 13:03:17;;;;;;;2.27;1.90;;;13.80;50.20;;;;;;5469212;26;20597;-72
2024/04/22 13:05:46;;;;;;;2.23;2.03;;;12.10;51.80;;;;;;5477439;26;20549;-72
2024/04/22 13:08:14;;;;;;;3.13;2.70;;;10.90;54.00;;;;;;5462846;26;20875;-72
2024/04/22 13:10:41;;;;;;;3.07;2.53;;;10.20;54.80;;;;;;5477940;26;20554;-72
2024/04/22 13:13:10;;;;;;;3.67;2.40;;;9.70;57.20;;;;;;5468133;26;20552;-72
2024/04/22 13:15:38;;;;;;;2.67;2.10;;;9.50;59.00;;;;;;5459769;26;20603;-72